createdAt,value
2022-07-31T00:02:08.323Z,17.50
2022-07-31T00:04:34.961Z,17.50
2022-07-31T00:07:02.846Z,17.50
2022-07-31T00:09:49.210Z,17.50
2022-07-31T00:12:17.227Z,17.50
2022-07-31T00:14:43.842Z,17.70
2022-07-31T00:17:10.596Z,17.60
2022-07-31T00:19:37.351Z,17.70
2022-07-31T00:22:03.958Z,17.60
2022-07-31T00:24:30.619Z,17.70
2022-07-31T00:26:57.276Z,17.70
2022-07-31T00:29:23.940Z,17.70
2022-07-31T00:31:50.924Z,17.70
2022-07-31T00:34:17.537Z,17.80
2022-07-31T00:36:44.154Z,17.70
2022-07-31T00:39:10.750Z,17.70
2022-07-31T00:41:43.051Z,17.70
2022-07-31T00:44:12.472Z,17.70
2022-07-31T00:46:40.566Z,17.60
2022-07-31T00:49:09.958Z,17.50
2022-07-31T00:51:40.765Z,17.40
2022-07-31T00:54:08.922Z,17.40
2022-07-31T00:56:36.497Z,17.20
2022-07-31T00:59:04.229Z,17.10
2022-07-31T01:01:31.082Z,17.10
2022-07-31T01:03:58.146Z,17.00
2022-07-31T01:06:24.722Z,17.00
2022-07-31T01:08:51.327Z,16.90
2022-07-31T01:11:36.878Z,16.90
2022-07-31T01:14:09.273Z,16.90
2022-07-31T01:16:40.283Z,16.80
2022-07-31T01:19:23.669Z,16.80
2022-07-31T01:22:33.761Z,16.80
2022-07-31T01:25:35.168Z,16.70
2022-07-31T01:28:21.825Z,16.70
2022-07-31T01:31:17.336Z,16.60
2022-07-31T01:33:50.663Z,16.60
2022-07-31T01:36:22.311Z,16.60
2022-07-31T01:38:53.227Z,16.60
2022-07-31T01:41:26.644Z,16.60
2022-07-31T01:43:55.594Z,16.50
2022-07-31T01:46:25.041Z,16.50
2022-07-31T01:48:54.726Z,16.40
2022-07-31T01:51:23.469Z,16.40
2022-07-31T01:53:51.966Z,16.40
2022-07-31T01:56:20.281Z,16.30
2022-07-31T01:58:49.529Z,16.20
2022-07-31T02:01:17.029Z,16.20
2022-07-31T02:03:45.547Z,16.10
2022-07-31T02:06:15.043Z,16.10
2022-07-31T02:08:44.850Z,16.10
2022-07-31T02:11:13.886Z,16.00
2022-07-31T02:13:40.742Z,16.00
2022-07-31T02:16:08.179Z,16.00
2022-07-31T02:18:35.304Z,15.90
2022-07-31T02:21:02.073Z,15.90
2022-07-31T02:23:28.715Z,15.90
2022-07-31T02:25:55.677Z,15.90
2022-07-31T02:28:24.360Z,15.90
2022-07-31T02:30:51.788Z,15.90
2022-07-31T02:33:22.213Z,15.90
2022-07-31T02:35:56.153Z,15.80
2022-07-31T02:38:26.493Z,15.80
2022-07-31T02:40:57.565Z,15.70
2022-07-31T02:43:28.442Z,15.70
2022-07-31T02:45:57.304Z,15.70
2022-07-31T02:48:25.430Z,15.70
2022-07-31T02:50:52.983Z,15.60
2022-07-31T02:53:20.340Z,15.70
2022-07-31T02:55:47.085Z,15.70
2022-07-31T02:58:14.277Z,15.70
2022-07-31T03:00:41.290Z,15.70
2022-07-31T03:03:07.982Z,15.60
2022-07-31T03:05:34.659Z,15.60
2022-07-31T03:08:01.359Z,15.60
2022-07-31T03:10:28.075Z,15.60
2022-07-31T03:12:55.872Z,15.50
2022-07-31T03:15:25.409Z,15.50
2022-07-31T03:17:54.206Z,15.40
2022-07-31T03:20:22.199Z,15.40
2022-07-31T03:22:49.003Z,15.40
2022-07-31T03:25:21.293Z,15.40
2022-07-31T03:27:55.937Z,15.40
2022-07-31T03:30:26.917Z,15.30
2022-07-31T03:32:54.341Z,15.30
2022-07-31T03:35:21.348Z,15.30
2022-07-31T03:37:48.255Z,15.20
2022-07-31T03:40:14.980Z,15.10
2022-07-31T03:42:42.547Z,15.10
2022-07-31T03:45:10.756Z,15.00
2022-07-31T03:47:37.951Z,15.00
2022-07-31T03:50:06.336Z,15.10
2022-07-31T03:52:33.499Z,15.10
2022-07-31T03:55:00.143Z,15.20
2022-07-31T03:57:31.184Z,15.20
2022-07-31T04:00:02.188Z,15.20
2022-07-31T04:02:29.496Z,15.10
2022-07-31T04:04:57.114Z,15.10
2022-07-31T04:07:24.415Z,15.00
2022-07-31T04:09:50.994Z,15.00
2022-07-31T04:12:17.872Z,15.00
2022-07-31T04:14:44.672Z,15.00
2022-07-31T04:17:11.574Z,15.20
2022-07-31T04:19:39.187Z,15.20
2022-07-31T04:22:07.872Z,15.20
2022-07-31T04:24:34.850Z,15.20
2022-07-31T04:27:01.599Z,15.20
2022-07-31T04:29:29.440Z,15.20
2022-07-31T04:31:57.048Z,15.30
2022-07-31T04:34:23.801Z,15.40
2022-07-31T04:36:50.459Z,15.50
2022-07-31T04:39:17.283Z,15.60
2022-07-31T04:41:44.284Z,15.80
2022-07-31T04:44:11.360Z,15.90
2022-07-31T04:46:38.236Z,16.10
2022-07-31T04:49:04.951Z,16.30
2022-07-31T04:51:31.684Z,16.40
2022-07-31T04:53:58.286Z,16.50
2022-07-31T04:56:35.641Z,16.60
2022-07-31T04:59:05.358Z,16.80
2022-07-31T05:01:32.561Z,17.00
2022-07-31T05:03:59.325Z,17.20
2022-07-31T05:06:41.870Z,17.40
2022-07-31T05:09:17.821Z,17.50
2022-07-31T05:11:46.046Z,17.80
2022-07-31T05:14:13.996Z,18.00
2022-07-31T05:16:40.711Z,18.20
2022-07-31T05:19:13.917Z,18.30
2022-07-31T05:21:53.207Z,18.50
2022-07-31T05:24:22.757Z,18.50
2022-07-31T05:26:59.829Z,18.60
2022-07-31T05:29:26.818Z,18.70
2022-07-31T05:31:59.996Z,18.70
2022-07-31T05:34:30.127Z,18.70
2022-07-31T05:36:58.426Z,18.80
2022-07-31T05:39:25.170Z,18.80
2022-07-31T05:41:52.669Z,18.90
2022-07-31T05:44:19.325Z,18.90
2022-07-31T05:46:46.007Z,19.10
2022-07-31T05:49:12.789Z,19.20
2022-07-31T05:51:43.218Z,19.30
2022-07-31T05:54:09.844Z,19.50
2022-07-31T05:56:36.617Z,19.70
2022-07-31T05:59:03.350Z,19.70
2022-07-31T06:01:29.993Z,19.90
2022-07-31T06:03:56.638Z,19.90
2022-07-31T06:06:23.236Z,20.00
2022-07-31T06:08:49.814Z,20.10
2022-07-31T06:11:16.505Z,20.20
2022-07-31T06:13:43.231Z,20.20
2022-07-31T06:16:14.010Z,20.20
2022-07-31T06:18:41.111Z,20.30
2022-07-31T06:21:07.732Z,20.40
2022-07-31T06:23:34.319Z,20.50
2022-07-31T06:26:00.905Z,20.50
2022-07-31T06:28:46.401Z,20.60
2022-07-31T06:31:18.346Z,20.70
2022-07-31T06:33:48.489Z,20.90
2022-07-31T06:36:16.224Z,21.10
2022-07-31T06:38:42.834Z,21.40
2022-07-31T06:41:09.498Z,21.50
2022-07-31T06:43:36.140Z,21.50
2022-07-31T06:46:02.772Z,21.50
2022-07-31T06:48:29.377Z,21.60
2022-07-31T06:51:14.466Z,21.80
2022-07-31T07:01:04.953Z,22.60
2022-07-31T07:03:31.664Z,22.50
2022-07-31T07:05:58.257Z,22.60
2022-07-31T07:08:25.103Z,22.70
2022-07-31T07:10:51.731Z,22.70
2022-07-31T07:13:18.290Z,22.80
2022-07-31T07:15:44.883Z,23.10
2022-07-31T07:18:11.754Z,23.40
2022-07-31T07:20:38.740Z,23.60
2022-07-31T07:23:05.451Z,23.60
2022-07-31T07:25:32.027Z,23.70
2022-07-31T07:27:58.895Z,23.80
2022-07-31T07:30:28.464Z,24.20
2022-07-31T07:32:55.297Z,24.20
2022-07-31T07:40:25.493Z,24.60
2022-07-31T07:42:52.895Z,24.60
2022-07-31T07:45:19.674Z,25.00
2022-07-31T07:47:53.919Z,25.10
2022-07-31T07:50:32.780Z,25.40
2022-07-31T07:53:04.378Z,25.80
2022-07-31T07:55:37.180Z,25.90
2022-07-31T07:58:07.724Z,25.90
2022-07-31T08:00:38.031Z,25.80
2022-07-31T08:03:49.332Z,25.50
2022-07-31T08:05:51.464Z,25.50
2022-07-31T08:08:18.046Z,25.70
2022-07-31T08:10:44.694Z,25.60
2022-07-31T08:13:11.405Z,25.80
2022-07-31T08:15:37.986Z,26.00
2022-07-31T08:18:04.670Z,25.90
2022-07-31T08:20:31.292Z,26.20
2022-07-31T08:22:57.978Z,26.00
2022-07-31T08:25:24.594Z,25.80
2022-07-31T08:27:58.372Z,25.60
2022-07-31T08:30:30.869Z,25.70
2022-07-31T08:32:57.916Z,25.70
2022-07-31T08:35:25.435Z,25.60
2022-07-31T08:38:03.469Z,25.80
2022-07-31T08:40:31.602Z,25.60
2022-07-31T08:43:01.784Z,25.70
2022-07-31T08:45:40.363Z,26.00
2022-07-31T08:48:08.871Z,25.80
2022-07-31T08:50:38.919Z,26.10
2022-07-31T08:53:06.447Z,25.80
2022-07-31T08:55:56.354Z,25.90
2022-07-31T08:58:20.606Z,26.20
2022-07-31T09:00:47.383Z,26.50
2022-07-31T09:03:14.127Z,26.00
2022-07-31T09:05:42.485Z,26.40
2022-07-31T09:08:14.879Z,26.30
2022-07-31T09:10:49.094Z,26.60
2022-07-31T09:13:18.655Z,26.50
2022-07-31T09:15:46.380Z,26.70
2022-07-31T09:18:21.795Z,26.90
2022-07-31T09:21:03.040Z,27.20
2022-07-31T09:23:30.427Z,27.30
2022-07-31T09:25:59.505Z,27.30
2022-07-31T09:28:33.762Z,27.20
2022-07-31T09:31:01.078Z,27.20
2022-07-31T09:33:29.628Z,27.50
2022-07-31T09:35:57.326Z,28.10
2022-07-31T09:38:36.873Z,28.60
2022-07-31T09:41:55.503Z,28.90
2022-07-31T09:44:10.200Z,28.80
2022-07-31T09:46:46.394Z,28.80
2022-07-31T09:49:13.888Z,28.60
2022-07-31T09:51:42.181Z,28.60
2022-07-31T09:54:23.537Z,28.00
2022-07-31T09:56:50.328Z,28.00
2022-07-31T09:59:17.676Z,27.80
2022-07-31T10:01:48.606Z,27.80
2022-07-31T10:04:18.407Z,27.90
2022-07-31T10:06:50.782Z,28.30
2022-07-31T10:09:20.391Z,28.00
2022-07-31T10:11:48.978Z,28.30
2022-07-31T10:14:27.612Z,27.80
2022-07-31T10:16:58.943Z,27.60
2022-07-31T10:19:31.951Z,28.10
2022-07-31T10:22:02.574Z,28.40
2022-07-31T10:24:32.932Z,28.60
2022-07-31T10:27:01.874Z,28.40
2022-07-31T10:29:40.767Z,28.30
2022-07-31T10:32:08.765Z,28.60
2022-07-31T10:34:36.112Z,29.10
2022-07-31T10:37:18.696Z,28.90
2022-07-31T10:40:13.559Z,28.80
2022-07-31T10:42:51.606Z,29.00
2022-07-31T10:45:18.574Z,29.20
2022-07-31T10:47:55.824Z,29.30
2022-07-31T10:50:24.986Z,29.30
2022-07-31T10:52:51.767Z,29.00
2022-07-31T10:55:25.155Z,29.60
2022-07-31T10:57:55.269Z,30.00
2022-07-31T11:00:29.647Z,30.20
2022-07-31T11:02:56.955Z,30.60
2022-07-31T11:05:24.535Z,30.80
2022-07-31T11:08:06.226Z,30.60
2022-07-31T11:13:04.247Z,29.30
2022-07-31T11:15:32.008Z,29.00
2022-07-31T11:18:22.236Z,29.20
2022-07-31T11:20:49.406Z,29.00
2022-07-31T11:23:17.534Z,29.00
2022-07-31T11:25:45.974Z,29.20
2022-07-31T11:28:24.632Z,29.10
2022-07-31T11:30:53.606Z,29.20
2022-07-31T11:33:43.063Z,29.60
2022-07-31T11:36:21.216Z,30.20
2022-07-31T11:41:17.450Z,31.10
2022-07-31T12:19:52.855Z,30.10
2022-07-31T12:22:21.540Z,30.10
2022-07-31T12:24:59.634Z,29.70
2022-07-31T12:27:26.351Z,29.40
2022-07-31T13:27:39.374Z,30.10
2022-07-31T13:30:08.840Z,30.10
2022-07-31T13:35:19.711Z,29.20
2022-07-31T13:37:49.215Z,29.20
2022-07-31T13:40:16.701Z,29.60
2022-07-31T13:42:43.337Z,30.60
2022-07-31T16:08:31.904Z,32.90
2022-07-31T16:10:15.322Z,32.90
2022-07-31T16:12:43.025Z,32.60
2022-07-31T16:15:11.279Z,32.30
2022-07-31T16:17:37.981Z,32.10
2022-07-31T16:20:10.507Z,31.50
2022-07-31T16:22:39.051Z,30.90
2022-07-31T16:25:07.330Z,31.60
2022-07-31T16:27:35.209Z,32.10
2022-07-31T16:30:03.051Z,32.40
2022-07-31T16:32:30.437Z,32.40
2022-07-31T16:35:01.088Z,31.60
2022-07-31T16:37:50.518Z,31.60
2022-07-31T16:43:01.349Z,33.30
2022-07-31T16:52:55.233Z,31.90
2022-07-31T16:55:55.762Z,31.40
2022-07-31T16:58:11.532Z,30.80
2022-07-31T17:00:39.600Z,30.30
2022-07-31T17:03:06.457Z,30.00
2022-07-31T17:05:33.057Z,29.70
2022-07-31T17:07:59.785Z,29.60
2022-07-31T17:10:27.089Z,29.40
2022-07-31T17:12:54.350Z,29.30
2022-07-31T17:15:21.182Z,29.20
2022-07-31T17:17:48.096Z,29.40
2022-07-31T17:20:15.093Z,29.40
2022-07-31T17:22:41.799Z,29.50
2022-07-31T17:25:10.139Z,29.50
2022-07-31T17:27:36.762Z,29.60
2022-07-31T17:30:04.209Z,29.60
2022-07-31T17:32:32.305Z,29.50
2022-07-31T17:34:58.894Z,29.40
2022-07-31T17:37:25.538Z,29.30
2022-07-31T17:39:58.219Z,29.40
2022-07-31T17:42:25.983Z,29.40
2022-07-31T17:44:55.706Z,29.30
2022-07-31T17:47:25.450Z,29.10
2022-07-31T17:49:52.606Z,29.00
2022-07-31T17:52:20.845Z,28.80
2022-07-31T17:54:47.863Z,28.80
2022-07-31T17:57:14.537Z,28.80
2022-07-31T17:59:42.427Z,28.60
2022-07-31T18:02:09.934Z,28.60
2022-07-31T18:04:37.522Z,28.50
2022-07-31T18:07:06.614Z,28.40
2022-07-31T18:09:33.960Z,28.40
2022-07-31T18:12:00.945Z,28.30
2022-07-31T18:14:27.592Z,28.30
2022-07-31T18:16:54.650Z,28.30
2022-07-31T18:19:22.185Z,28.30
2022-07-31T18:21:49.599Z,28.30
2022-07-31T18:24:16.186Z,28.30
2022-07-31T18:26:42.828Z,28.30
2022-07-31T18:29:09.381Z,28.20
2022-07-31T18:31:36.266Z,28.10
2022-07-31T18:34:06.796Z,28.00
2022-07-31T18:36:34.023Z,28.00
2022-07-31T18:39:01.158Z,28.00
2022-07-31T18:41:27.819Z,27.80
2022-07-31T18:43:54.805Z,27.70
2022-07-31T18:46:23.474Z,27.50
2022-07-31T18:48:55.090Z,27.30
2022-07-31T18:51:23.108Z,27.30
2022-07-31T18:53:50.249Z,27.20
2022-07-31T18:56:17.051Z,27.00
2022-07-31T18:58:43.750Z,26.80
2022-07-31T19:01:10.577Z,26.60
2022-07-31T19:03:37.225Z,26.50
2022-07-31T19:06:04.530Z,26.30
2022-07-31T19:08:31.248Z,26.20
2022-07-31T19:10:57.920Z,26.10
2022-07-31T19:13:24.652Z,26.00
2022-07-31T19:15:54.727Z,25.80
2022-07-31T19:18:28.396Z,25.80
2022-07-31T19:21:21.355Z,25.80
2022-07-31T19:23:45.727Z,25.70
2022-07-31T19:26:12.652Z,25.70
2022-07-31T19:28:40.132Z,25.60
2022-07-31T19:31:07.413Z,25.50
2022-07-31T19:33:34.243Z,25.40
2022-07-31T19:36:02.903Z,25.30
2022-07-31T19:38:30.920Z,25.10
2022-07-31T19:40:57.748Z,25.00
2022-07-31T19:43:24.506Z,24.90
2022-07-31T19:46:10.094Z,24.70
2022-07-31T19:48:40.447Z,24.70
2022-07-31T19:51:07.067Z,24.60
2022-07-31T19:53:33.673Z,24.40
2022-07-31T19:56:05.152Z,24.30
2022-07-31T19:58:32.832Z,24.20
2022-07-31T20:00:59.474Z,24.10
2022-07-31T20:03:26.392Z,24.00
2022-07-31T20:05:53.105Z,23.90
2022-07-31T20:08:19.729Z,23.60
2022-07-31T20:10:46.307Z,23.60
2022-07-31T20:13:13.018Z,23.50
2022-07-31T20:15:51.523Z,23.50
2022-07-31T20:18:29.819Z,23.40
2022-07-31T20:20:59.689Z,23.30
2022-07-31T20:23:27.498Z,23.30
2022-07-31T20:25:54.209Z,23.20
2022-07-31T20:28:21.256Z,23.20
2022-07-31T20:30:47.861Z,23.30
2022-07-31T20:33:14.597Z,23.00
2022-07-31T20:35:48.807Z,23.10
2022-07-31T20:38:17.905Z,22.80
2022-07-31T20:40:49.943Z,22.90
2022-07-31T20:43:23.392Z,22.90
2022-07-31T20:45:50.041Z,22.90
2022-07-31T20:48:17.769Z,22.80
2022-07-31T20:50:48.335Z,22.70
2022-07-31T20:53:19.236Z,22.60
2022-07-31T20:55:49.004Z,22.50
2022-07-31T20:58:16.191Z,22.30
2022-07-31T21:00:42.839Z,22.20
2022-07-31T21:03:09.509Z,22.10
2022-07-31T21:05:36.162Z,22.00
2022-07-31T21:08:02.831Z,21.90
2022-07-31T21:10:30.040Z,21.80
2022-07-31T21:12:57.282Z,21.70
2022-07-31T21:15:43.229Z,21.60
2022-07-31T21:18:18.594Z,21.70
2022-07-31T21:20:50.981Z,21.70
2022-07-31T21:23:23.633Z,21.70
2022-07-31T21:25:51.596Z,21.60
2022-07-31T21:28:18.491Z,21.60
2022-07-31T21:30:45.585Z,21.60
2022-07-31T21:33:12.435Z,21.50
2022-07-31T21:35:40.083Z,21.50
2022-07-31T21:38:10.432Z,21.30
2022-07-31T21:40:38.950Z,21.30
2022-07-31T21:43:06.148Z,21.30
2022-07-31T21:45:47.777Z,21.20
2022-07-31T21:48:22.090Z,21.20
2022-07-31T21:50:48.832Z,21.20
2022-07-31T21:53:15.455Z,21.20
2022-07-31T21:55:42.170Z,21.20
2022-07-31T21:58:09.406Z,21.30
2022-07-31T22:00:36.702Z,21.30
2022-07-31T22:03:04.083Z,21.30
2022-07-31T22:05:50.200Z,21.20
2022-07-31T22:08:17.015Z,21.20
2022-07-31T22:10:44.156Z,21.20
2022-07-31T22:13:10.788Z,21.10
2022-07-31T22:15:58.294Z,21.00
2022-07-31T22:18:26.592Z,21.00
2022-07-31T22:20:53.666Z,20.90
2022-07-31T22:23:20.694Z,20.70
2022-07-31T22:25:51.026Z,20.60
2022-07-31T22:28:19.966Z,20.60
2022-07-31T22:30:47.256Z,20.60
2022-07-31T22:33:14.400Z,20.60
2022-07-31T22:35:41.201Z,20.60
2022-07-31T22:38:08.828Z,20.70
2022-07-31T22:40:35.707Z,20.70
2022-07-31T22:43:03.458Z,20.90
2022-07-31T22:45:30.467Z,21.00
2022-07-31T22:47:58.050Z,20.90
2022-07-31T22:50:25.318Z,20.80
2022-07-31T22:52:52.624Z,20.80
2022-07-31T22:55:19.245Z,20.60
2022-07-31T22:57:46.182Z,20.60
2022-07-31T23:00:15.048Z,20.50
2022-07-31T23:02:42.542Z,20.30
2022-07-31T23:05:10.214Z,20.20
2022-07-31T23:07:37.403Z,20.30
2022-07-31T23:10:06.349Z,20.40
2022-07-31T23:12:32.976Z,20.50
2022-07-31T23:14:59.583Z,20.40
2022-07-31T23:17:26.248Z,20.40
2022-07-31T23:19:54.363Z,20.40
2022-07-31T23:22:33.178Z,20.40
2022-07-31T23:25:05.164Z,20.40
2022-07-31T23:27:32.682Z,20.40
2022-07-31T23:29:59.775Z,20.30
2022-07-31T23:32:28.027Z,20.30
2022-07-31T23:34:54.937Z,20.30
2022-07-31T23:37:21.853Z,20.30
2022-07-31T23:39:48.421Z,20.20
2022-07-31T23:42:33.860Z,20.20
2022-07-31T23:45:00.455Z,20.20
2022-07-31T23:47:46.048Z,20.20
2022-07-31T23:50:15.038Z,20.30
2022-07-31T23:52:42.612Z,20.20
2022-07-31T23:55:09.404Z,20.20
2022-07-31T23:57:36.476Z,20.20
